• Join FlightAware (Why Join?)
  • Login
  • US Flag 
06:53AM EDT


 

Airport Tracker/Info


-or-


 

Live Flight TrackerFlight Track Log ✈ N667CD ✈ 28-Jun-2013 ✈ KVQQ - KVNC

Flight Track Log - Related Links

Times and Time Zones

All times are in EDT time to prevent confusion due to time zone crossing. See the N667CD flight status page for this flight to view local times or setup timezone preferences in your user account.

Time Position Orientation Groundspeed Altitude Reporting Facility
EDT Latitude Longitude Course Direction KTS MPH feet Rate Location/Type
09:50AM 30.2125 -81.9069 223° Southwest 84 97 900  Level Jacksonville Center
09:51AM 30.1856 -81.9361 223° Southwest 121 139 1,600 720 Climbing Jacksonville Center
09:52AM 30.1631 -81.9700 232° Southwest 131 151 2,400 660 Climbing Jacksonville Center
09:53AM 30.1381 -82.0039 230° Southwest 133 153 3,000 600 Climbing Jacksonville Center
09:54AM 30.1153 -82.0353 230° Southwest 132 152 3,700 600 Climbing Jacksonville Center
09:55AM 30.0883 -82.0644 223° Southwest 129 148 4,300 600 Climbing Jacksonville Center
09:56AM 30.0656 -82.0958 230° Southwest 130 150 5,000 600 Climbing Jacksonville Center
09:57AM 30.0281 -82.1033 190° South 150 173 5,600 540 Climbing Jacksonville Center
09:58AM 29.9844 -82.1108 188° South 146 168 6,100 480 Climbing Jacksonville Center
09:59AM 29.9467 -82.1158 187° South 148 170 6,600 480 Climbing Jacksonville Center
10:00AM 29.8989 -82.1211 185° South 149 171 7,100 480 Climbing Jacksonville Center
10:01AM 29.8592 -82.1286 189° South 150 173 7,600 480 Climbing Jacksonville Center
10:02AM 29.8194 -82.1361 189° South 150 173 8,100 420 Climbing Jacksonville Center
10:03AM 29.7778 -82.1411 186° South 153 176 8,500 360 Climbing Jacksonville Center
10:04AM 29.7361 -82.1486 189° South 154 177 8,900 240 Climbing Jacksonville Center
10:05AM 29.6881 -82.1514 183° South 165 190 9,000  Climbing Jacksonville Center
10:06AM 29.6403 -82.1614 190° South 168 193 9,000  Level Jacksonville Center
10:07AM 29.5942 -82.1689 188° South 165 190 9,000  Level Jacksonville Center
10:09AM 29.5464 -82.1739 185° South 162 186 9,000  Level Jacksonville Center
10:09AM 29.5067 -82.1814 189° South 161 185 9,000  Level Jacksonville Center
10:10AM 29.4608 -82.1867 186° South 161 185 9,000 -240 Level Jacksonville Center
10:12AM 29.4150 -82.1964 190° South 168 193 8,600 -480 Descending Jacksonville Center
10:13AM 29.3586 -82.2039 187° South 176 203 8,100 -480 Descending Jacksonville Center
10:14AM 29.3106 -82.2114 188° South 177 204 7,600 -480 Descending Jacksonville Center
10:15AM 29.2606 -82.2167 185° South 175 201 7,200 -360 Descending Jacksonville Center
10:15AM 29.2208 -82.2217 186° South 174 200 7,000 -120 Descending Jacksonville Center
10:17AM 29.1731 -82.2314 190° South 164 189 7,000  Level Jacksonville Center
10:18AM 29.1208 -82.2200 169° South 163 188 7,000  Level Jacksonville Center
10:19AM 29.0747 -82.2108 170° South 163 188 7,000  Level Jacksonville Center
10:20AM 29.0331 -82.2039 172° South 164 189 7,000  Level Jacksonville Center
10:21AM 28.9892 -82.1947 170° South 163 188 7,000  Level Jacksonville Center
10:22AM 28.9411 -82.1878 173° South 165 190 7,000  Level Jacksonville Center
10:23AM 28.8908 -82.1764 169° South 164 189 7,000  Level Jacksonville Center
10:24AM 28.8492 -82.1694 172° South 162 186 7,000  Level Jacksonville Center
10:26AM 28.7500 -82.1500 170° South 162 186 7,000  Level Tampa TRACON
10:27AM 28.7000 -82.1333 164° South 163 188 7,000  Level Tampa TRACON
10:28AM 28.6500 -82.1333 180° South 163 188 7,000  Level Tampa TRACON
10:29AM 28.6000 -82.1167 164° South 162 186 7,000  Level Tampa TRACON
10:30AM 28.5500 -82.1167 180° South 160 184 7,000  Level Tampa TRACON
10:31AM 28.5167 -82.1000 156° South 161 185 7,000  Level Tampa TRACON
10:32AM 28.4833 -82.1000 180° South 159 183 7,000  Level Tampa TRACON
10:33AM 28.4333 -82.1000 180° South 161 185 7,000  Level Tampa TRACON
10:34AM 28.3833 -82.0833 164° South 161 185 7,000  Level Tampa TRACON
10:35AM 28.3333 -82.0833 180° South 161 185 7,000  Level Tampa TRACON
10:36AM 28.3000 -82.0667 156° South 159 183 7,000  Level Tampa TRACON
10:37AM 28.2500 -82.0667 180° South 161 185 7,000  Level Tampa TRACON
10:38AM 28.2000 -82.0500 164° South 159 183 7,000  Level Tampa TRACON
10:39AM 28.1667 -82.0500 180° South 159 183 7,000  Level Tampa TRACON
10:40AM 28.1167 -82.0333 164° South 159 183 7,000  Level Tampa TRACON
10:41AM 28.0667 -82.0500 196° South 157 181 7,000 -60 Level Tampa TRACON
10:42AM 28.0333 -82.0667 204° Southwest 156 180 6,900 -300 Descending Tampa TRACON
10:43AM 27.9833 -82.0833 196° South 168 193 6,500 -480 Descending Tampa TRACON
10:44AM 27.9500 -82.1000 204° Southwest 172 198 6,000 -300 Descending Tampa TRACON
10:45AM 27.9000 -82.1167 196° South 167 192 6,000  Level Tampa TRACON
10:46AM 27.8667 -82.1500 221° Southwest 156 180 6,000  Level Tampa TRACON
10:47AM 27.8167 -82.1667 196° South 152 175 6,000  Level Tampa TRACON
10:48AM 27.7833 -82.1833 204° Southwest 153 176 6,000  Level Tampa TRACON
10:49AM 27.7500 -82.2167 222° Southwest 154 177 6,000  Level Tampa TRACON
10:50AM 27.7167 -82.2500 222° Southwest 154 177 6,000 -60 Level Tampa TRACON
10:51AM 27.6667 -82.2667 196° South 155 178 5,900  Descending Tampa TRACON
10:52AM 27.6333 -82.2833 204° Southwest 156 180 6,000  Climbing Tampa TRACON
10:53AM 27.6000 -82.3167 222° Southwest 155 178 6,000  Level Tampa TRACON
10:54AM 27.5500 -82.3167 180° South 157 181 6,000  Level Tampa TRACON
10:55AM 27.5167 -82.3167 180° South 158 182 6,000 -420 Level Tampa TRACON
10:56AM 27.4667 -82.3333 196° South 171 197 5,300 -780 Descending Tampa TRACON
10:57AM 27.4167 -82.3500 196° South 184 212 4,500 -660 Descending Tampa TRACON
10:58AM 27.3667 -82.3667 196° South 174 200 4,000 -300 Descending Tampa TRACON
10:59AM 27.3333 -82.3833 204° Southwest 160 184 3,900  Descending Tampa TRACON
11:00AM 27.2833 -82.4167 211° Southwest 153 176 4,000 -720 Climbing Tampa TRACON
11:02AM 27.2333 -82.4167 180° South 168 193 2,500 -1,380 Descending Tampa TRACON